FABM

Bethlehem Airport

Bethlehem, South Africa
METAR FABM 220618Z 01001KT CAVOK 14/05 Q1024
Observed Flight Rules
Apr-22 @ 06:18 UTC (34 minutes ago) Visual Flight Rules
Wind Visibility Clouds
10° at 1 knots 10,000+ meters
  • Clear skies
Temperatures Readings
Current 14°C / 57°F
Dewpoint 5°C / 41°F
Humidity 55%
Altimeter 30.24" Hg
Pressure 1024 hPa
Elevation 1682
METAR FABM 220618Z 01001KT CAVOK 14/05 Q1024
Observed Flight Rules
Apr-22 @ 06:18 UTC
(34 minutes ago)
VFR
Wind Visibility
10° at 1 knots 10,000+ meters
Clouds
  • Clear skies
Temperature Dewpoint
14°C / 57°F 5°C / 41°F
Humidity Altimeter Pressure
55% 30.24" Hg 1024 hPa